Newcastle, Australia
Current Conditions -  °F | °C
As of 6:00 AM on Sunday 26 Oct 2014 (Local Time) from YWLM Reporting Station
Light Fog Light Fog  
Wind Chill: 64°   Ceiling: Unl
Heat Index: 64°   Visibility: 4mi
Dew Point: 63°   Wind: 8mph
Humidity: 94%   Direction: 20°NNE
Pressure: 29.85"   Gusts: NA
Location:  32.93°S, 151.78°E
Report Text: YWLM 251900Z 02007KT 6000 MIFG SCT140 18/17 Q1011
Loading
Personal Weather Stations






























Interactive Weather Map
Tropical Storm Tracking
New forecast layout! Learn more

10-Day Weather Forecast

Advertisements
Track Severe Weather on mobile